createdAt,value
2016-02-27T15:52:37.425Z,19.1
2016-02-27T15:53:37.647Z,19.14
2016-02-27T15:54:37.617Z,19.2
2016-02-27T15:55:37.606Z,19.24
2016-02-27T15:56:37.608Z,19.28
2016-02-27T15:57:37.547Z,19.35
2016-02-27T15:58:37.535Z,19.39
2016-02-27T15:59:37.522Z,19.43
2016-02-27T16:00:37.493Z,19.38
2016-02-27T16:01:37.465Z,19.36
2016-02-27T16:02:37.452Z,19.55
2016-02-27T16:03:37.423Z,19.53
2016-02-27T16:04:37.410Z,19.48
2016-02-27T16:05:37.382Z,19.55
2016-02-27T16:06:37.369Z,19.5
2016-02-27T16:07:37.340Z,19.54
2016-02-27T16:08:37.327Z,19.57
2016-02-27T16:09:37.330Z,19.4
2016-02-27T16:10:37.285Z,19.53
2016-02-27T16:11:37.274Z,19.48
2016-02-27T16:12:37.245Z,19.66
2016-02-27T16:13:37.231Z,19.53
2016-02-27T16:14:37.203Z,19.57
2016-02-27T16:15:37.190Z,19.55
2016-02-27T16:16:37.177Z,19.58
2016-02-27T16:17:37.149Z,19.6
2016-02-27T16:18:37.136Z,19.54
2016-02-27T16:19:37.123Z,19.55
2016-02-27T16:20:37.094Z,19.57
2016-02-27T16:21:37.081Z,19.55
2016-02-27T16:22:37.053Z,19.57
2016-02-27T16:23:37.070Z,19.65
2016-02-27T16:24:37.027Z,19.57
2016-02-27T16:25:37.092Z,19.55
2016-02-27T16:26:36.986Z,19.57
2016-02-27T16:27:36.988Z,19.55
2016-02-27T16:28:36.959Z,19.6
2016-02-27T16:29:36.930Z,19.57
2016-02-27T16:30:36.919Z,19.55
2016-02-27T16:31:36.889Z,19.6
2016-02-27T16:32:36.877Z,19.58
2016-02-27T16:33:36.863Z,19.54
2016-02-27T16:34:36.882Z,19.58
2016-02-27T16:35:36.821Z,19.65
2016-02-27T16:36:36.824Z,19.55
2016-02-27T16:37:36.797Z,19.57
2016-02-27T16:38:36.799Z,19.55
2016-02-27T16:39:36.755Z,19.57
2016-02-27T16:40:36.741Z,19.58
2016-02-27T16:41:36.729Z,19.57
2016-02-27T16:42:36.700Z,19.57
2016-02-27T16:43:36.672Z,19.6
2016-02-27T16:44:36.721Z,19.6
2016-02-27T16:45:36.646Z,19.61
2016-02-27T16:46:36.632Z,19.55
2016-02-27T16:47:36.604Z,19.58
2016-02-27T16:48:36.592Z,19.55
2016-02-27T16:49:36.595Z,19.65
2016-02-27T16:50:36.581Z,19.57
2016-02-27T16:51:36.553Z,19.54
2016-02-27T16:52:36.508Z,19.57
2016-02-27T16:53:36.495Z,19.6
2016-02-27T16:54:36.561Z,19.72
2016-02-27T16:55:36.486Z,19.6
2016-02-27T16:56:36.472Z,19.6
2016-02-27T16:57:36.428Z,19.57
2016-02-27T16:58:36.414Z,19.54
2016-02-27T16:59:36.402Z,19.58
2016-02-27T17:00:36.405Z,19.55
2016-02-27T17:01:36.361Z,19.55
2016-02-27T17:02:36.364Z,19.55
2016-02-27T17:03:36.336Z,19.57
2016-02-27T17:04:36.306Z,19.58
2016-02-27T17:05:36.278Z,19.55
2016-02-27T17:06:36.296Z,19.55
2016-02-27T17:07:36.251Z,19.6
2016-02-27T17:08:36.238Z,19.57
2016-02-27T17:09:36.226Z,19.6
2016-02-27T17:10:36.197Z,19.6
2016-02-27T17:11:36.185Z,19.58
2016-02-27T17:12:36.171Z,19.55
2016-02-27T17:13:36.159Z,19.57
2016-02-27T17:14:36.129Z,19.53
2016-02-27T17:15:36.117Z,19.47
2016-02-27T17:16:36.105Z,19.53
2016-02-27T17:17:36.076Z,19.57
2016-02-27T17:18:36.079Z,19.57
2016-02-27T17:19:36.050Z,19.53
2016-02-27T17:20:36.021Z,19.65
2016-02-27T17:21:36.024Z,19.6
2016-02-27T17:22:35.996Z,19.55
2016-02-27T17:23:35.982Z,19.57
2016-02-27T17:24:35.969Z,19.53
2016-02-27T17:25:35.925Z,19.51
2016-02-27T17:26:35.928Z,19.58
2016-02-27T17:27:35.899Z,19.53
2016-02-27T17:28:35.886Z,19.54
2016-02-27T17:29:35.874Z,19.57
2016-02-27T17:30:35.845Z,19.55
2016-02-27T17:31:35.848Z,19.54
2016-02-27T17:32:35.819Z,19.55
2016-02-27T17:33:35.838Z,19.57
2016-02-27T17:34:35.777Z,19.5
2016-02-27T17:35:35.780Z,19.66
2016-02-27T17:36:35.736Z,19.55
2016-02-27T17:37:35.739Z,19.47
2016-02-27T17:38:35.710Z,19.55
2016-02-27T17:39:35.697Z,19.58
2016-02-27T17:40:35.668Z,19.46
2016-02-27T17:41:35.671Z,19.58
2016-02-27T17:42:35.658Z,19.57
2016-02-27T17:43:35.630Z,19.53
2016-02-27T17:44:35.602Z,19.48
2016-02-27T17:45:35.604Z,19.47
2016-02-27T17:46:35.576Z,19.46
2016-02-27T17:47:35.546Z,19.65
2016-02-27T17:48:35.518Z,19.47
2016-02-27T17:49:35.506Z,19.53
2016-02-27T17:50:35.509Z,19.65
2016-02-27T17:51:35.479Z,19.48
2016-02-27T17:52:35.467Z,19.61
2016-02-27T17:53:35.453Z,19.58
2016-02-27T17:54:35.425Z,19.54
2016-02-27T17:55:35.412Z,19.55
2016-02-27T17:56:35.384Z,19.47
2016-02-27T17:57:35.371Z,19.57
2016-02-27T17:58:35.358Z,19.6
2016-02-27T17:59:35.329Z,19.63
2016-02-27T18:00:35.331Z,19.57
2016-02-27T18:01:35.303Z,19.6
2016-02-27T18:02:35.274Z,19.46
2016-02-27T18:03:35.277Z,19.58
2016-02-27T18:04:35.250Z,19.55
2016-02-27T18:05:35.252Z,19.51
2016-02-27T18:06:35.238Z,19.6
2016-02-27T18:07:35.194Z,19.51
2016-02-27T18:08:35.182Z,19.51
2016-02-27T18:09:35.185Z,19.5
2016-02-27T18:10:35.156Z,19.53
2016-02-27T18:11:35.127Z,19.54
2016-02-27T18:12:35.161Z,19.51
2016-02-27T18:13:35.117Z,19.48
2016-02-27T18:14:35.073Z,19.51
2016-02-27T18:15:35.059Z,19.5
2016-02-27T18:16:35.047Z,19.53
2016-02-27T18:17:35.018Z,19.51
2016-02-27T18:18:35.021Z,19.48
2016-02-27T18:19:34.976Z,19.53
2016-02-27T18:20:34.996Z,19.47
2016-02-27T18:21:34.951Z,19.4
2016-02-27T18:22:34.954Z,19.51
2016-02-27T18:23:34.909Z,19.53
2016-02-27T18:24:34.975Z,19.51
2016-02-27T18:25:34.884Z,19.48
2016-02-27T18:26:34.870Z,19.55
2016-02-27T18:27:34.842Z,19.53
2016-02-27T18:28:34.829Z,19.53
2016-02-27T18:29:34.817Z,19.46
2016-02-27T18:30:34.819Z,19.53
2016-02-27T18:31:34.775Z,19.51
2016-02-27T18:32:34.761Z,19.54
2016-02-27T18:33:34.764Z,19.53
2016-02-27T18:34:34.720Z,19.42
2016-02-27T18:35:34.707Z,19.53
2016-02-27T18:36:34.679Z,19.51
2016-02-27T18:37:34.681Z,19.48
2016-02-27T18:38:34.638Z,19.42
2016-02-27T18:39:34.624Z,19.5
2016-02-27T18:40:34.643Z,19.53
2016-02-27T18:41:34.598Z,19.51
2016-02-27T18:42:34.649Z,19.53
2016-02-27T18:43:34.572Z,19.5
2016-02-27T18:44:34.560Z,19.54
2016-02-27T18:45:34.594Z,19.46
2016-02-27T18:46:34.518Z,19.48
2016-02-27T18:47:34.490Z,19.53
2016-02-27T18:48:34.476Z,19.48
2016-02-27T18:49:34.463Z,19.51
2016-02-27T18:50:34.435Z,19.51
2016-02-27T18:51:34.423Z,19.4
2016-02-27T18:52:34.409Z,19.54
2016-02-27T18:53:34.396Z,19.39
2016-02-27T18:54:34.383Z,19.51
2016-02-27T18:55:34.355Z,19.48
2016-02-27T18:56:34.326Z,19.47
2016-02-27T18:57:34.314Z,19.53
2016-02-27T18:58:34.332Z,19.51
2016-02-27T18:59:34.288Z,19.53
2016-02-27T19:00:34.259Z,19.51
2016-02-27T19:01:34.277Z,19.46
2016-02-27T19:02:34.233Z,19.5
2016-02-27T19:03:34.220Z,19.53
2016-02-27T19:04:34.192Z,19.54
2016-02-27T19:05:34.179Z,19.5
2016-02-27T19:06:34.166Z,19.48
2016-02-27T19:07:34.136Z,19.47
2016-02-27T19:08:34.125Z,19.5
2016-02-27T19:09:34.125Z,19.48
2016-02-27T19:10:34.097Z,19.55
2016-02-27T19:11:34.068Z,19.53
2016-02-27T19:12:34.055Z,19.5
2016-02-27T19:13:33.886Z,19.46
2016-02-27T19:14:34.029Z,19.48
2016-02-27T19:15:34.000Z,19.5
2016-02-27T19:16:33.987Z,19.47
2016-02-27T19:17:33.975Z,19.51
2016-02-27T19:18:33.961Z,19.47
2016-02-27T19:19:33.933Z,19.53
2016-02-27T19:20:33.904Z,19.5
2016-02-27T19:21:33.891Z,19.47
2016-02-27T19:22:33.879Z,19.51
2016-02-27T19:23:33.866Z,19.4
2016-02-27T19:24:33.838Z,19.5
2016-02-27T19:25:33.824Z,19.51
2016-02-27T19:26:33.812Z,19.51
2016-02-27T19:27:33.782Z,19.51
2016-02-27T19:28:33.785Z,19.51
2016-02-27T19:29:33.787Z,19.5
2016-02-27T19:30:33.729Z,19.5
2016-02-27T19:31:33.716Z,19.51
2016-02-27T19:32:33.703Z,19.51
2016-02-27T19:33:33.689Z,19.51
2016-02-27T19:34:33.661Z,19.55
2016-02-27T19:35:33.648Z,19.58
2016-02-27T19:36:33.620Z,19.46
2016-02-27T19:37:33.623Z,19.48
2016-02-27T19:38:33.594Z,19.53
2016-02-27T19:39:33.581Z,19.54
2016-02-27T19:40:33.567Z,19.55
2016-02-27T19:41:33.555Z,19.51
2016-02-27T19:42:33.542Z,19.54
2016-02-27T19:43:33.497Z,19.51
2016-02-27T19:44:33.485Z,19.4
2016-02-27T19:45:33.472Z,19.51
2016-02-27T19:46:33.475Z,19.38
2016-02-27T19:47:33.430Z,19.4
2016-02-27T19:48:33.433Z,19.47
2016-02-27T19:49:33.388Z,19.47
2016-02-27T19:50:33.391Z,19.48
2016-02-27T19:51:33.347Z,19.42
2016-02-27T19:52:33.350Z,19.48
2016-02-27T19:53:33.321Z,19.47
2016-02-27T19:54:33.012Z,19.4
2016-02-27T19:55:33.295Z,19.48
2016-02-27T19:56:33.267Z,19.38
2016-02-27T19:57:33.254Z,19.38
2016-02-27T19:58:33.241Z,19.43
2016-02-27T19:59:33.228Z,19.5
2016-02-27T20:00:33.231Z,19.47
2016-02-27T20:01:33.187Z,19.39
2016-02-27T20:02:33.174Z,19.35
2016-02-27T20:03:33.161Z,19.38
2016-02-27T20:04:32.976Z,19.39
2016-02-27T20:05:33.104Z,19.4
2016-02-27T20:06:33.090Z,19.4
2016-02-27T20:07:33.078Z,19.42
2016-02-27T20:08:33.064Z,19.38
2016-02-27T20:09:33.053Z,19.4
2016-02-27T20:10:33.023Z,19.39
2016-02-27T20:11:32.995Z,19.39
2016-02-27T20:12:32.981Z,19.38
2016-02-27T20:13:32.969Z,19.43
2016-02-27T20:14:32.956Z,19.39
2016-02-27T20:15:32.928Z,19.38
2016-02-27T20:16:32.915Z,19.42
2016-02-27T20:17:32.902Z,19.43
2016-02-27T20:18:32.889Z,19.42
2016-02-27T20:19:32.875Z,19.36
2016-02-27T20:20:32.847Z,19.42
2016-02-27T20:21:32.834Z,19.48
2016-02-27T20:22:32.805Z,19.42
2016-02-27T20:23:32.793Z,19.39
2016-02-27T20:24:32.827Z,19.31
2016-02-27T20:25:32.764Z,19.33
2016-02-27T20:26:32.735Z,19.42
2016-02-27T20:27:32.723Z,19.4
2016-02-27T20:28:32.710Z,19.42
2016-02-27T20:29:32.697Z,19.43
2016-02-27T20:30:32.668Z,19.46
2016-02-27T20:31:32.655Z,19.4
2016-02-27T20:32:32.643Z,19.42
2016-02-27T20:33:32.614Z,19.33
2016-02-27T20:34:32.601Z,19.32
2016-02-27T20:35:32.573Z,19.35
2016-02-27T20:36:32.576Z,19.38
2016-02-27T20:37:32.546Z,19.4
2016-02-27T20:38:32.518Z,19.39
2016-02-27T20:39:32.520Z,19.39
2016-02-27T20:40:32.492Z,19.4
2016-02-27T20:41:32.479Z,19.36
2016-02-27T20:42:32.467Z,19.4
2016-02-27T20:43:32.437Z,19.4
2016-02-27T20:44:32.424Z,19.38
2016-02-27T20:45:32.411Z,19.38
2016-02-27T20:46:32.384Z,19.4
2016-02-27T20:47:32.370Z,19.36
2016-02-27T20:48:32.358Z,19.33
2016-02-27T20:49:32.344Z,19.32
2016-02-27T20:50:32.316Z,19.38
2016-02-27T20:51:32.303Z,19.33
2016-02-27T20:52:32.274Z,19.38
2016-02-27T20:53:32.261Z,19.33
2016-02-27T20:54:32.264Z,19.36
2016-02-27T20:55:32.220Z,19.38
2016-02-27T20:56:32.207Z,19.36
2016-02-27T20:57:32.194Z,19.32
2016-02-27T20:58:32.165Z,19.36
2016-02-27T20:59:32.168Z,19.38
2016-02-27T21:00:32.155Z,19.43
2016-02-27T21:01:32.127Z,19.38
2016-02-27T21:02:32.098Z,19.39
2016-02-27T21:03:32.085Z,19.33
2016-02-27T21:04:32.072Z,19.33
2016-02-27T21:05:32.059Z,19.4
2016-02-27T21:06:32.032Z,19.38
2016-02-27T21:07:32.002Z,19.46
2016-02-27T21:08:32.005Z,19.36
2016-02-27T21:09:31.977Z,19.38
2016-02-27T21:10:31.948Z,19.4
2016-02-27T21:11:31.955Z,19.35
2016-02-27T21:12:31.926Z,19.42
2016-02-27T21:13:31.913Z,19.39
2016-02-27T21:14:31.899Z,19.36
2016-02-27T21:15:31.887Z,19.35
2016-02-27T21:16:31.858Z,19.35
2016-02-27T21:17:31.845Z,19.38
2016-02-27T21:18:31.817Z,19.36
2016-02-27T21:19:31.804Z,19.32
2016-02-27T21:20:31.776Z,19.35
2016-02-27T21:21:31.779Z,19.32
2016-02-27T21:22:31.750Z,19.38
2016-02-27T21:23:31.737Z,19.32
2016-02-27T21:24:31.723Z,19.33
2016-02-27T21:25:31.695Z,19.33
2016-02-27T21:26:31.667Z,19.39
2016-02-27T21:27:31.670Z,19.35
2016-02-27T21:28:31.640Z,19.33
2016-02-27T21:29:31.675Z,19.36
2016-02-27T21:30:31.614Z,19.32
2016-02-27T21:31:31.586Z,19.35
2016-02-27T21:32:31.573Z,19.35
2016-02-27T21:33:31.561Z,19.36
2016-02-27T21:34:31.532Z,19.31
2016-02-27T21:35:31.534Z,19.35
2016-02-27T21:36:31.505Z,19.29
2016-02-27T21:37:31.477Z,19.31
2016-02-27T21:38:31.464Z,19.32
2016-02-27T21:39:31.452Z,19.29
2016-02-27T21:40:31.423Z,19.32
2016-02-27T21:41:31.425Z,19.25
2016-02-27T21:42:31.397Z,19.31
2016-02-27T21:43:31.384Z,19.29
2016-02-27T21:44:31.355Z,19.36
2016-02-27T21:45:31.327Z,19.32
2016-02-27T21:46:31.313Z,19.25
2016-02-27T21:47:31.302Z,19.35
2016-02-27T21:48:31.288Z,19.33
2016-02-27T21:49:31.276Z,19.32
2016-02-27T21:50:31.246Z,19.31
2016-02-27T21:51:31.327Z,19.39
2016-02-27T21:52:31.237Z,19.36
2016-02-27T21:53:31.193Z,19.31
2016-02-27T21:54:31.195Z,19.35
2016-02-27T21:55:31.167Z,19.28
2016-02-27T21:56:31.137Z,19.28
2016-02-27T21:57:31.125Z,19.36
2016-02-27T21:58:31.096Z,19.35
2016-02-27T21:59:31.084Z,19.39
2016-02-27T22:00:31.070Z,19.35
2016-02-27T22:01:31.058Z,19.29
2016-02-27T22:02:31.044Z,19.29
2016-02-27T22:03:31.032Z,19.31
2016-02-27T22:04:30.987Z,19.29
2016-02-27T22:05:30.990Z,19.33
2016-02-27T22:06:30.962Z,19.35
2016-02-27T22:07:30.964Z,19.38
2016-02-27T22:08:30.920Z,19.38
2016-02-27T22:09:30.922Z,19.25
2016-02-27T22:10:30.894Z,19.33
2016-02-27T22:11:30.881Z,19.31
2016-02-27T22:12:30.852Z,19.33
2016-02-27T22:13:30.840Z,19.33
2016-02-27T22:14:30.827Z,19.24
2016-02-27T22:15:30.813Z,19.25
2016-02-27T22:16:30.802Z,19.25
2016-02-27T22:17:30.772Z,19.31
2016-02-27T22:18:30.760Z,19.32
2016-02-27T22:19:30.732Z,19.25
2016-02-27T22:20:30.718Z,19.25
2016-02-27T22:21:30.705Z,19.32
2016-02-27T22:22:30.723Z,19.23
2016-02-27T22:23:30.663Z,19.29
2016-02-27T22:24:30.635Z,19.21
2016-02-27T22:25:30.669Z,19.32
2016-02-27T22:26:30.625Z,19.28
2016-02-27T22:27:30.596Z,19.23
2016-02-27T22:28:30.567Z,19.24
2016-02-27T22:29:30.555Z,19.25
2016-02-27T22:30:30.542Z,19.33
2016-02-27T22:31:30.560Z,19.33
2016-02-27T22:32:30.532Z,19.31
2016-02-27T22:33:30.472Z,19.31
2016-02-27T22:34:30.522Z,19.23
2016-02-27T22:35:30.462Z,19.31
2016-02-27T22:36:30.433Z,19.31
2016-02-27T22:37:30.420Z,19.32
2016-02-27T22:38:30.392Z,19.35
2016-02-27T22:39:30.363Z,19.38
2016-02-27T22:40:30.366Z,19.31
2016-02-27T22:41:30.336Z,19.36
2016-02-27T22:42:30.317Z,19.31
2016-02-27T22:43:30.289Z,19.32
2016-02-27T22:44:30.262Z,19.35
2016-02-27T22:45:30.218Z,19.31
2016-02-27T22:46:30.191Z,19.28
2016-02-27T22:47:30.152Z,19.25
2016-02-27T22:48:30.135Z,19.31
2016-02-27T22:49:30.132Z,19.29
2016-02-27T22:50:30.098Z,19.31
2016-02-27T22:51:30.063Z,19.29
2016-02-27T22:52:30.048Z,19.24
2016-02-27T22:53:30.032Z,19.39
2016-02-27T22:54:30.017Z,19.28
2016-02-27T22:55:29.987Z,19.36
2016-02-27T22:56:29.973Z,19.25
2016-02-27T22:57:29.942Z,19.29
2016-02-27T22:58:29.929Z,19.33
2016-02-27T22:59:29.916Z,19.35
2016-02-27T23:00:29.902Z,19.25
2016-02-27T23:01:29.905Z,19.33
2016-02-27T23:02:29.861Z,19.35
2016-02-27T23:03:29.831Z,19.25
2016-02-27T23:04:29.818Z,19.31
2016-02-27T23:05:29.804Z,19.24
2016-02-27T23:06:29.791Z,19.24
2016-02-27T23:07:29.762Z,19.39
2016-02-27T23:08:29.734Z,19.23
2016-02-27T23:09:29.737Z,19.35
2016-02-27T23:10:29.724Z,19.28
2016-02-27T23:11:29.695Z,19.25
2016-02-27T23:12:29.698Z,19.31
2016-02-27T23:13:29.653Z,19.36
2016-02-27T23:14:29.625Z,19.25
2016-02-27T23:15:29.628Z,19.29
2016-02-27T23:16:29.600Z,19.32
2016-02-27T23:17:29.586Z,19.32
2016-02-27T23:18:29.558Z,19.23
2016-02-27T23:19:29.575Z,19.24
2016-02-27T23:20:29.532Z,19.32
2016-02-27T23:21:29.519Z,19.28
2016-02-27T23:22:29.506Z,19.25
2016-02-27T23:23:29.494Z,19.25
2016-02-27T23:24:29.464Z,19.33
2016-02-27T23:25:29.499Z,19.29
2016-02-27T23:26:29.423Z,19.28
2016-02-27T23:27:29.410Z,19.36
2016-02-27T23:28:29.397Z,19.38
2016-02-27T23:29:28.807Z,19.38
2016-02-27T23:30:29.372Z,19.39
2016-02-27T23:31:29.358Z,19.46
2016-02-27T23:32:29.330Z,19.51
2016-02-27T23:33:29.302Z,19.5
2016-02-27T23:34:29.273Z,19.54
2016-02-27T23:35:31.698Z,19.55
2016-02-27T23:36:29.246Z,19.55
2016-02-27T23:37:29.234Z,19.61
2016-02-27T23:38:29.206Z,19.57
2016-02-27T23:39:29.192Z,19.57
2016-02-27T23:40:29.195Z,19.6
2016-02-27T23:41:29.151Z,19.57
2016-02-27T23:42:29.123Z,19.65
2016-02-27T23:43:29.140Z,19.69
2016-02-27T23:44:29.112Z,19.58
2016-02-27T23:45:29.083Z,19.68
2016-02-27T23:46:29.070Z,19.78
2016-02-27T23:47:29.042Z,19.76
2016-02-27T23:48:29.029Z,19.73
2016-02-27T23:49:29.016Z,19.78
2016-02-27T23:50:28.988Z,19.8
2016-02-27T23:51:28.975Z,19.8
2016-02-27T23:52:28.947Z,19.83
2016-02-27T23:53:28.949Z,19.83
2016-02-27T23:54:28.920Z,19.86
2016-02-27T23:55:28.955Z,19.86
2016-02-27T23:56:28.894Z,19.87
2016-02-27T23:57:28.913Z,19.9
2016-02-27T23:58:28.837Z,19.88
2016-02-27T23:59:28.840Z,19.88
